Main page
METAR-TAF:

METAR-TAF

Airports :

London Southend Airport

London-Southend, England

latitude: 51-34N, longitude: 000-42E, elevation: 15 m

Current weather observation

The report was made 31 minutes ago, at 20:20 UTC
Wind 11 kt from the North
Temperature 5°C
Humidity 75%
Pressure 1032 hPa
Visibility 10 km or more
Few clouds at a height of 1300 ft
Scattered clouds at a height of 3100 ft

METAR: EGMC 282020Z 36011KT 9999 FEW013 SCT031 05/01 Q1032

Time: 20:51 (20:51 UTC)

Forecast

The report was made 46 minutes ago, at 20:05 UTC
Forecast valid from 28 at 21 UTC to 29 at 06 UTC
Wind 12 kt from the North
Visibility 10 km or more
Scattered clouds at a height of 3500 ft
Probability 40% :
Temporary
from 28 at 21 UTC to 29 at 06 UTC
Wind 15 kt from the North with gusts up to 25 kt
Probability 30% :
Temporary
from 28 at 21 UTC to 29 at 06 UTC
Visibility: 8000 m
light rain showers

TAF: EGMC 282005Z 2821/2906 01012KT 9999 SCT035 PROB40 TEMPO 2821/2906 01015G25KT PROB30 TEMPO 2821/2906 8000 -SHRA

Weather observations and forecasts of more than 4000 airports (METAR and TAF reports).

The available stations are represented by yellow and red dots on the map.

Hover mouse over dot to see the name of the station.

Then click to see weather observations and forecasts.

To change the map : click on the green buttons with a black cross to zoom in, on the green button with a dash to zoom out, or on the green arrows for adjacent maps.


METAR-TAF: